sensor_id;sensor_type;location;lat;lon;timestamp;temperature;humidity
7572;DHT22;3827;49.928;8.548;2023-01-05T00:09:31;10.50;99.90
7572;DHT22;3827;49.928;8.548;2023-01-05T00:22:59;10.60;99.90
7572;DHT22;3827;49.928;8.548;2023-01-05T00:25:27;10.10;99.90
7572;DHT22;3827;49.928;8.548;2023-01-05T00:27:55;10.50;99.90
7572;DHT22;3827;49.928;8.548;2023-01-05T00:30:25;10.50;99.90
7572;DHT22;3827;49.928;8.548;2023-01-05T00:32:53;9.70;99.90
7572;DHT22;3827;49.928;8.548;2023-01-05T00:37:48;9.80;99.90
7572;DHT22;3827;49.928;8.548;2023-01-05T00:40:17;9.80;99.90
7572;DHT22;3827;49.928;8.548;2023-01-05T00:47:40;9.70;99.90
7572;DHT22;3827;49.928;8.548;2023-01-05T00:50:11;10.20;99.90
7572;DHT22;3827;49.928;8.548;2023-01-05T00:52:38;9.90;99.90
7572;DHT22;3827;49.928;8.548;2023-01-05T00:55:06;9.80;99.90
7572;DHT22;3827;49.928;8.548;2023-01-05T01:00:00;10.20;99.90
7572;DHT22;3827;49.928;8.548;2023-01-05T01:07:23;10.10;99.90
7572;DHT22;3827;49.928;8.548;2023-01-05T01:12:17;10.40;99.90
7572;DHT22;3827;49.928;8.548;2023-01-05T01:17:13;9.80;99.90
7572;DHT22;3827;49.928;8.548;2023-01-05T01:31:57;10.00;99.90
7572;DHT22;3827;49.928;8.548;2023-01-05T01:36:53;9.80;99.90
7572;DHT22;3827;49.928;8.548;2023-01-05T01:41:49;9.80;99.90
7572;DHT22;3827;49.928;8.548;2023-01-05T01:47:01;9.90;99.90
7572;DHT22;3827;49.928;8.548;2023-01-05T01:51:55;9.60;99.90
7572;DHT22;3827;49.928;8.548;2023-01-05T01:54:22;10.00;99.90
7572;DHT22;3827;49.928;8.548;2023-01-05T01:56:53;10.40;99.90
7572;DHT22;3827;49.928;8.548;2023-01-05T02:04:16;9.80;99.90
7572;DHT22;3827;49.928;8.548;2023-01-05T02:09:10;10.40;99.90
7572;DHT22;3827;49.928;8.548;2023-01-05T02:11:42;10.70;99.90
7572;DHT22;3827;49.928;8.548;2023-01-05T02:14:20;9.90;99.90
7572;DHT22;3827;49.928;8.548;2023-01-05T02:17:03;10.70;99.90
7572;DHT22;3827;49.928;8.548;2023-01-05T02:23:02;10.00;99.90
7572;DHT22;3827;49.928;8.548;2023-01-05T02:28:42;10.60;99.90
7572;DHT22;3827;49.928;8.548;2023-01-05T02:31:17;10.40;99.90
7572;DHT22;3827;49.928;8.548;2023-01-05T02:38:54;10.30;99.90
7572;DHT22;3827;49.928;8.548;2023-01-05T02:41:27;10.30;99.90
7572;DHT22;3827;49.928;8.548;2023-01-05T02:58:53;11.20;99.90
7572;DHT22;3827;49.928;8.548;2023-01-05T03:11:18;10.80;99.90
7572;DHT22;3827;49.928;8.548;2023-01-05T03:14:06;10.60;99.90
7572;DHT22;3827;49.928;8.548;2023-01-05T03:16:35;11.20;99.90
7572;DHT22;3827;49.928;8.548;2023-01-05T03:19:07;10.60;99.90
7572;DHT22;3827;49.928;8.548;2023-01-05T03:21:54;10.90;99.90
7572;DHT22;3827;49.928;8.548;2023-01-05T03:35:45;10.90;99.90
7572;DHT22;3827;49.928;8.548;2023-01-05T03:38:18;11.00;99.90
7572;DHT22;3827;49.928;8.548;2023-01-05T03:43:17;10.90;99.90
7572;DHT22;3827;49.928;8.548;2023-01-05T03:45:49;10.80;99.90
7572;DHT22;3827;49.928;8.548;2023-01-05T03:53:13;10.50;99.90
7572;DHT22;3827;49.928;8.548;2023-01-05T04:03:02;10.80;99.90
7572;DHT22;3827;49.928;8.548;2023-01-05T04:07:57;11.10;99.90
7572;DHT22;3827;49.928;8.548;2023-01-05T04:10:24;10.90;99.90
7572;DHT22;3827;49.928;8.548;2023-01-05T04:15:18;11.20;99.90
7572;DHT22;3827;49.928;8.548;2023-01-05T04:20:12;10.40;99.90
7572;DHT22;3827;49.928;8.548;2023-01-05T04:25:08;10.80;99.90
7572;DHT22;3827;49.928;8.548;2023-01-05T04:27:35;10.40;99.90
7572;DHT22;3827;49.928;8.548;2023-01-05T04:32:29;10.50;99.90
7572;DHT22;3827;49.928;8.548;2023-01-05T04:37:22;10.60;99.90
7572;DHT22;3827;49.928;8.548;2023-01-05T04:44:45;10.50;99.90
7572;DHT22;3827;49.928;8.548;2023-01-05T04:49:39;10.70;99.90
7572;DHT22;3827;49.928;8.548;2023-01-05T04:59:29;11.00;99.90
7572;DHT22;3827;49.928;8.548;2023-01-05T05:04:23;10.30;99.90
7572;DHT22;3827;49.928;8.548;2023-01-05T05:14:11;10.70;99.90
7572;DHT22;3827;49.928;8.548;2023-01-05T05:16:39;10.20;99.90
7572;DHT22;3827;49.928;8.548;2023-01-05T05:24:02;10.70;99.90
7572;DHT22;3827;49.928;8.548;2023-01-05T05:28:56;10.60;99.90
7572;DHT22;3827;49.928;8.548;2023-01-05T05:33:52;10.20;99.90
7572;DHT22;3827;49.928;8.548;2023-01-05T05:36:19;10.10;99.90
7572;DHT22;3827;49.928;8.548;2023-01-05T05:41:12;10.50;99.90
7572;DHT22;3827;49.928;8.548;2023-01-05T05:46:06;10.50;99.90
7572;DHT22;3827;49.928;8.548;2023-01-05T05:53:35;10.10;99.90
7572;DHT22;3827;49.928;8.548;2023-01-05T06:00:56;10.30;99.90
7572;DHT22;3827;49.928;8.548;2023-01-05T06:05:51;10.70;99.90
7572;DHT22;3827;49.928;8.548;2023-01-05T06:08:20;10.10;99.90
7572;DHT22;3827;49.928;8.548;2023-01-05T06:13:16;10.40;99.90
7572;DHT22;3827;49.928;8.548;2023-01-05T06:15:43;10.50;99.90
7572;DHT22;3827;49.928;8.548;2023-01-05T06:18:10;9.70;99.90
7572;DHT22;3827;49.928;8.548;2023-01-05T06:23:04;10.10;99.90
7572;DHT22;3827;49.928;8.548;2023-01-05T06:28:00;10.30;99.90
7572;DHT22;3827;49.928;8.548;2023-01-05T06:37:48;10.50;99.90
7572;DHT22;3827;49.928;8.548;2023-01-05T06:42:44;9.70;99.90
7572;DHT22;3827;49.928;8.548;2023-01-05T06:52:34;10.40;99.90
7572;DHT22;3827;49.928;8.548;2023-01-05T06:55:05;10.20;99.90
7572;DHT22;3827;49.928;8.548;2023-01-05T07:00:03;10.20;99.90
7572;DHT22;3827;49.928;8.548;2023-01-05T07:02:31;10.40;99.90
7572;DHT22;3827;49.928;8.548;2023-01-05T07:07:24;9.90;99.90
7572;DHT22;3827;49.928;8.548;2023-01-05T07:09:51;10.20;99.90
7572;DHT22;3827;49.928;8.548;2023-01-05T07:14:45;9.80;99.90
7572;DHT22;3827;49.928;8.548;2023-01-05T07:17:14;9.90;99.90
7572;DHT22;3827;49.928;8.548;2023-01-05T07:22:08;10.20;99.90
7572;DHT22;3827;49.928;8.548;2023-01-05T07:27:02;10.20;99.90
7572;DHT22;3827;49.928;8.548;2023-01-05T07:31:56;10.10;99.90
7572;DHT22;3827;49.928;8.548;2023-01-05T07:34:24;10.30;99.90
7572;DHT22;3827;49.928;8.548;2023-01-05T07:39:18;10.50;99.90
7572;DHT22;3827;49.928;8.548;2023-01-05T07:44:12;10.50;99.90
7572;DHT22;3827;49.928;8.548;2023-01-05T07:46:38;9.80;99.90
7572;DHT22;3827;49.928;8.548;2023-01-05T07:51:34;9.80;99.90
7572;DHT22;3827;49.928;8.548;2023-01-05T07:56:28;9.90;99.90
7572;DHT22;3827;49.928;8.548;2023-01-05T08:01:22;9.80;99.90
7572;DHT22;3827;49.928;8.548;2023-01-05T08:06:18;10.00;99.90
7572;DHT22;3827;49.928;8.548;2023-01-05T08:08:46;10.30;99.90
7572;DHT22;3827;49.928;8.548;2023-01-05T08:11:16;9.90;99.90
7572;DHT22;3827;49.928;8.548;2023-01-05T08:13:45;10.30;99.90
7572;DHT22;3827;49.928;8.548;2023-01-05T08:18:56;10.00;99.90
7572;DHT22;3827;49.928;8.548;2023-01-05T08:26:20;9.90;99.90
7572;DHT22;3827;49.928;8.548;2023-01-05T08:31:20;10.20;99.90
7572;DHT22;3827;49.928;8.548;2023-01-05T08:33:47;10.00;99.90
7572;DHT22;3827;49.928;8.548;2023-01-05T08:38:43;10.60;99.90
7572;DHT22;3827;49.928;8.548;2023-01-05T08:41:16;9.90;99.90
7572;DHT22;3827;49.928;8.548;2023-01-05T08:43:43;10.30;99.90
7572;DHT22;3827;49.928;8.548;2023-01-05T08:46:14;10.20;99.90
7572;DHT22;3827;49.928;8.548;2023-01-05T08:51:08;9.90;99.90
7572;DHT22;3827;49.928;8.548;2023-01-05T08:56:02;10.30;99.90
7572;DHT22;3827;49.928;8.548;2023-01-05T08:58:31;10.30;99.90
7572;DHT22;3827;49.928;8.548;2023-01-05T09:00:58;8.00;99.90
7572;DHT22;3827;49.928;8.548;2023-01-05T09:03:25;10.80;99.90
7572;DHT22;3827;49.928;8.548;2023-01-05T09:05:52;10.40;99.90
7572;DHT22;3827;49.928;8.548;2023-01-05T09:10:51;10.80;99.90
7572;DHT22;3827;49.928;8.548;2023-01-05T09:18:13;10.90;99.90
7572;DHT22;3827;49.928;8.548;2023-01-05T09:28:01;10.50;99.90
7572;DHT22;3827;49.928;8.548;2023-01-05T09:35:23;10.70;99.90
7572;DHT22;3827;49.928;8.548;2023-01-05T09:40:18;10.90;99.90
7572;DHT22;3827;49.928;8.548;2023-01-05T09:42:46;10.80;99.90
7572;DHT22;3827;49.928;8.548;2023-01-05T09:50:23;11.50;99.90
7572;DHT22;3827;49.928;8.548;2023-01-05T09:52:52;11.20;99.90
7572;DHT22;3827;49.928;8.548;2023-01-05T09:57:52;11.00;99.90
7572;DHT22;3827;49.928;8.548;2023-01-05T10:00:20;11.20;99.90
7572;DHT22;3827;49.928;8.548;2023-01-05T10:02:51;11.60;99.90
7572;DHT22;3827;49.928;8.548;2023-01-05T10:05:21;11.10;99.90
7572;DHT22;3827;49.928;8.548;2023-01-05T10:10:25;11.10;99.90
7572;DHT22;3827;49.928;8.548;2023-01-05T10:12:57;11.10;99.90
7572;DHT22;3827;49.928;8.548;2023-01-05T10:15:37;11.60;99.90
7572;DHT22;3827;49.928;8.548;2023-01-05T10:23:17;12.00;99.90
7572;DHT22;3827;49.928;8.548;2023-01-05T10:25:51;11.50;99.90
7572;DHT22;3827;49.928;8.548;2023-01-05T10:30:57;11.60;99.90
7572;DHT22;3827;49.928;8.548;2023-01-05T10:33:40;11.30;99.90
7572;DHT22;3827;49.928;8.548;2023-01-05T10:41:36;11.40;99.90
7572;DHT22;3827;49.928;8.548;2023-01-05T10:49:15;11.20;99.90
7572;DHT22;3827;49.928;8.548;2023-01-05T10:54:23;11.50;99.90
7572;DHT22;3827;49.928;8.548;2023-01-05T10:56:52;11.50;99.90
7572;DHT22;3827;49.928;8.548;2023-01-05T11:01:48;12.10;99.90
7572;DHT22;3827;49.928;8.548;2023-01-05T11:04:16;11.90;99.90
7572;DHT22;3827;49.928;8.548;2023-01-05T11:06:45;12.00;99.90
7572;DHT22;3827;49.928;8.548;2023-01-05T11:09:18;11.80;99.90
7572;DHT22;3827;49.928;8.548;2023-01-05T11:11:52;12.30;99.90
7572;DHT22;3827;49.928;8.548;2023-01-05T11:14:20;12.20;99.90
7572;DHT22;3827;49.928;8.548;2023-01-05T11:16:49;12.10;99.90
7572;DHT22;3827;49.928;8.548;2023-01-05T11:21:46;12.10;99.90
7572;DHT22;3827;49.928;8.548;2023-01-05T11:24:28;12.00;99.90
7572;DHT22;3827;49.928;8.548;2023-01-05T11:31:53;12.10;99.90
7572;DHT22;3827;49.928;8.548;2023-01-05T11:49:25;12.30;99.90
7572;DHT22;3827;49.928;8.548;2023-01-05T11:51:54;12.20;99.90
7572;DHT22;3827;49.928;8.548;2023-01-05T11:54:30;12.20;99.90
7572;DHT22;3827;49.928;8.548;2023-01-05T11:57:14;12.30;99.90
7572;DHT22;3827;49.928;8.548;2023-01-05T12:05:02;12.30;99.90
7572;DHT22;3827;49.928;8.548;2023-01-05T12:10:32;12.80;99.90
7572;DHT22;3827;49.928;8.548;2023-01-05T12:21:03;12.60;99.90
7572;DHT22;3827;49.928;8.548;2023-01-05T12:32:12;12.30;99.90
7572;DHT22;3827;49.928;8.548;2023-01-05T12:35:01;12.50;99.90
7572;DHT22;3827;49.928;8.548;2023-01-05T12:37:36;12.40;99.90
7572;DHT22;3827;49.928;8.548;2023-01-05T12:42:55;12.40;99.90
7572;DHT22;3827;49.928;8.548;2023-01-05T12:48:03;12.40;99.90
7572;DHT22;3827;49.928;8.548;2023-01-05T12:53:07;13.00;99.90
7572;DHT22;3827;49.928;8.548;2023-01-05T12:55:42;12.60;99.90
7572;DHT22;3827;49.928;8.548;2023-01-05T13:00:40;13.10;99.90
7572;DHT22;3827;49.928;8.548;2023-01-05T13:05:44;12.90;99.90
7572;DHT22;3827;49.928;8.548;2023-01-05T13:20:52;12.90;99.90
7572;DHT22;3827;49.928;8.548;2023-01-05T13:31:05;13.50;99.90
7572;DHT22;3827;49.928;8.548;2023-01-05T13:33:48;13.30;99.90
7572;DHT22;3827;49.928;8.548;2023-01-05T13:36:29;13.70;99.90
7572;DHT22;3827;49.928;8.548;2023-01-05T13:57:53;11.50;99.90
7572;DHT22;3827;49.928;8.548;2023-01-05T14:00:24;11.80;99.90
7572;DHT22;3827;49.928;8.548;2023-01-05T14:02:58;11.60;99.90
7572;DHT22;3827;49.928;8.548;2023-01-05T14:10:26;11.60;99.90
7572;DHT22;3827;49.928;8.548;2023-01-05T14:12:55;11.40;99.90
7572;DHT22;3827;49.928;8.548;2023-01-05T14:15:35;11.30;99.90
7572;DHT22;3827;49.928;8.548;2023-01-05T14:20:35;11.50;99.90
7572;DHT22;3827;49.928;8.548;2023-01-05T14:26:11;10.50;99.90
7572;DHT22;3827;49.928;8.548;2023-01-05T14:31:47;11.00;99.90
7572;DHT22;3827;49.928;8.548;2023-01-05T14:34:16;11.00;99.90
7572;DHT22;3827;49.928;8.548;2023-01-05T14:36:58;10.90;99.90
7572;DHT22;3827;49.928;8.548;2023-01-05T14:39:29;10.90;99.90
7572;DHT22;3827;49.928;8.548;2023-01-05T14:42:01;10.90;99.90
7572;DHT22;3827;49.928;8.548;2023-01-05T14:46:58;10.80;99.90
7572;DHT22;3827;49.928;8.548;2023-01-05T14:49:30;10.40;99.90
7572;DHT22;3827;49.928;8.548;2023-01-05T14:51:59;11.00;99.90
7572;DHT22;3827;49.928;8.548;2023-01-05T15:07:23;10.60;99.90
7572;DHT22;3827;49.928;8.548;2023-01-05T15:10:10;10.90;99.90
7572;DHT22;3827;49.928;8.548;2023-01-05T15:15:41;10.40;99.90
7572;DHT22;3827;49.928;8.548;2023-01-05T15:21:21;10.20;99.90
7572;DHT22;3827;49.928;8.548;2023-01-05T15:24:08;10.60;99.90
7572;DHT22;3827;49.928;8.548;2023-01-05T15:34:44;10.50;99.90
7572;DHT22;3827;49.928;8.548;2023-01-05T15:39:46;10.40;99.90
7572;DHT22;3827;49.928;8.548;2023-01-05T15:44:46;10.90;99.90
7572;DHT22;3827;49.928;8.548;2023-01-05T15:47:15;10.90;99.90
7572;DHT22;3827;49.928;8.548;2023-01-05T15:55:00;10.60;99.90
7572;DHT22;3827;49.928;8.548;2023-01-05T16:10:15;10.60;99.90
7572;DHT22;3827;49.928;8.548;2023-01-05T16:12:42;10.30;99.90
7572;DHT22;3827;49.928;8.548;2023-01-05T16:17:41;10.10;99.90
7572;DHT22;3827;49.928;8.548;2023-01-05T16:22:41;9.90;99.90
7572;DHT22;3827;49.928;8.548;2023-01-05T16:30:28;10.20;99.90
7572;DHT22;3827;49.928;8.548;2023-01-05T16:32:56;9.90;99.90
7572;DHT22;3827;49.928;8.548;2023-01-05T16:38:14;10.20;99.90
7572;DHT22;3827;49.928;8.548;2023-01-05T16:45:53;10.00;99.90
7572;DHT22;3827;49.928;8.548;2023-01-05T16:53:42;10.50;99.90
7572;DHT22;3827;49.928;8.548;2023-01-05T17:03:58;10.80;99.90
7572;DHT22;3827;49.928;8.548;2023-01-05T17:06:27;10.50;99.90
7572;DHT22;3827;49.928;8.548;2023-01-05T17:11:26;10.20;99.90
7572;DHT22;3827;49.928;8.548;2023-01-05T17:23:48;9.60;99.90
7572;DHT22;3827;49.928;8.548;2023-01-05T17:31:13;9.30;99.90
7572;DHT22;3827;49.928;8.548;2023-01-05T17:41:03;9.70;99.90
7572;DHT22;3827;49.928;8.548;2023-01-05T17:45:59;9.20;99.90
7572;DHT22;3827;49.928;8.548;2023-01-05T17:58:15;9.70;99.90
7572;DHT22;3827;49.928;8.548;2023-01-05T18:03:12;9.70;99.90
7572;DHT22;3827;49.928;8.548;2023-01-05T18:05:41;9.50;99.90
7572;DHT22;3827;49.928;8.548;2023-01-05T18:13:05;9.70;99.90
7572;DHT22;3827;49.928;8.548;2023-01-05T18:15:32;9.40;99.90
7572;DHT22;3827;49.928;8.548;2023-01-05T18:27:48;9.70;99.90
7572;DHT22;3827;49.928;8.548;2023-01-05T18:30:17;9.60;99.90
7572;DHT22;3827;49.928;8.548;2023-01-05T18:35:11;9.60;99.90
7572;DHT22;3827;49.928;8.548;2023-01-05T18:45:01;9.50;99.90
7572;DHT22;3827;49.928;8.548;2023-01-05T18:52:26;9.60;99.90
7572;DHT22;3827;49.928;8.548;2023-01-05T18:54:53;9.30;99.90
7572;DHT22;3827;49.928;8.548;2023-01-05T18:59:47;9.20;99.90
7572;DHT22;3827;49.928;8.548;2023-01-05T19:02:15;9.30;99.90
7572;DHT22;3827;49.928;8.548;2023-01-05T19:07:12;9.40;99.90
7572;DHT22;3827;49.928;8.548;2023-01-05T19:14:34;9.60;99.90
7572;DHT22;3827;49.928;8.548;2023-01-05T19:21:56;9.70;99.90
7572;DHT22;3827;49.928;8.548;2023-01-05T19:26:52;9.50;99.90
7572;DHT22;3827;49.928;8.548;2023-01-05T19:34:16;9.80;99.90
7572;DHT22;3827;49.928;8.548;2023-01-05T19:44:11;9.70;99.90
7572;DHT22;3827;49.928;8.548;2023-01-05T19:46:39;9.40;99.90
7572;DHT22;3827;49.928;8.548;2023-01-05T20:06:24;9.60;99.90
7572;DHT22;3827;49.928;8.548;2023-01-05T20:08:52;9.60;99.90
7572;DHT22;3827;49.928;8.548;2023-01-05T20:14:02;10.10;99.90
7572;DHT22;3827;49.928;8.548;2023-01-05T20:16:29;9.80;99.90
7572;DHT22;3827;49.928;8.548;2023-01-05T20:21:24;9.50;99.90
7572;DHT22;3827;49.928;8.548;2023-01-05T20:36:12;9.70;99.90
7572;DHT22;3827;49.928;8.548;2023-01-05T20:41:13;9.60;99.90
7572;DHT22;3827;49.928;8.548;2023-01-05T20:46:09;9.20;99.90
7572;DHT22;3827;49.928;8.548;2023-01-05T20:53:33;9.50;99.90
7572;DHT22;3827;49.928;8.548;2023-01-05T21:10:52;9.30;99.90
7572;DHT22;3827;49.928;8.548;2023-01-05T21:13:19;9.50;99.90
7572;DHT22;3827;49.928;8.548;2023-01-05T21:15:52;9.60;99.90
7572;DHT22;3827;49.928;8.548;2023-01-05T21:18:19;9.40;99.90
7572;DHT22;3827;49.928;8.548;2023-01-05T21:28:10;12.00;99.90
7572;DHT22;3827;49.928;8.548;2023-01-05T21:35:32;9.70;99.90
7572;DHT22;3827;49.928;8.548;2023-01-05T21:40:27;9.40;99.90
7572;DHT22;3827;49.928;8.548;2023-01-05T21:50:18;9.60;99.90
7572;DHT22;3827;49.928;8.548;2023-01-05T21:58:30;9.60;99.90
7572;DHT22;3827;49.928;8.548;2023-01-05T22:03:25;9.40;99.90
7572;DHT22;3827;49.928;8.548;2023-01-05T22:33:01;9.80;99.90
7572;DHT22;3827;49.928;8.548;2023-01-05T22:35:28;9.70;99.90
7572;DHT22;3827;49.928;8.548;2023-01-05T22:45:17;9.40;99.90
7572;DHT22;3827;49.928;8.548;2023-01-05T22:47:44;9.90;99.90
7572;DHT22;3827;49.928;8.548;2023-01-05T22:52:38;9.50;99.90
7572;DHT22;3827;49.928;8.548;2023-01-05T22:57:32;9.50;99.90
7572;DHT22;3827;49.928;8.548;2023-01-05T23:04:54;9.40;99.90
7572;DHT22;3827;49.928;8.548;2023-01-05T23:14:43;10.00;99.90
7572;DHT22;3827;49.928;8.548;2023-01-05T23:19:38;10.10;99.90
7572;DHT22;3827;49.928;8.548;2023-01-05T23:22:05;9.70;99.90
7572;DHT22;3827;49.928;8.548;2023-01-05T23:26:59;9.70;99.90
7572;DHT22;3827;49.928;8.548;2023-01-05T23:29:27;9.80;99.90
7572;DHT22;3827;49.928;8.548;2023-01-05T23:34:21;9.80;99.90
7572;DHT22;3827;49.928;8.548;2023-01-05T23:36:49;9.40;99.90
7572;DHT22;3827;49.928;8.548;2023-01-05T23:41:44;9.30;99.90
7572;DHT22;3827;49.928;8.548;2023-01-05T23:49:06;9.80;99.90
7572;DHT22;3827;49.928;8.548;2023-01-05T23:54:01;10.00;99.90
